Time;durP1;ratioP1;P1;durP2;ratioP2;P2;SDS_P1;SDS_P2;PMS_P1;PMS_P2;Temp;Humidity;BMP_temperature;BMP_pressure;BME280_temperature;BME280_humidity;BME280_pressure;Samples;Min_cycle;Max_cycle;Signal;HPM_P1;HPM_P2
2023/05/31 00:00:26;;;;;;;16.40;10.13;;;13.30;99.90;;;;;;5031175;28;20190;-66
2023/05/31 00:02:52;;;;;;;11.33;8.90;;;13.30;99.90;;;;;;5035362;28;20191;-66
2023/05/31 00:05:17;;;;;;;14.23;9.90;;;13.20;99.90;;;;;;5034875;28;20680;-65
2023/05/31 00:07:43;;;;;;;10.93;9.87;;;13.20;99.90;;;;;;5035351;28;20183;-66
2023/05/31 00:10:09;;;;;;;11.73;10.33;;;13.10;99.90;;;;;;5034599;28;20190;-66
2023/05/31 00:12:34;;;;;;;12.00;10.13;;;13.10;99.90;;;;;;5035095;28;20199;-66
2023/05/31 00:15:00;;;;;;;13.27;10.70;;;13.10;99.90;;;;;;5034646;28;20199;-66
2023/05/31 00:17:25;;;;;;;14.97;10.47;;;13.10;99.90;;;;;;5034960;28;20575;-66
2023/05/31 00:19:51;;;;;;;15.63;11.07;;;13.10;99.90;;;;;;5034584;28;20318;-66
2023/05/31 00:22:17;;;;;;;12.33;10.90;;;13.00;99.90;;;;;;5034837;28;20195;-66
2023/05/31 00:24:43;;;;;;;14.17;10.17;;;13.00;99.90;;;;;;5034694;28;20207;-66
2023/05/31 00:27:09;;;;;;;18.20;11.13;;;13.00;99.90;;;;;;5035025;28;20175;-65
2023/05/31 00:29:34;;;;;;;13.93;11.03;;;13.00;99.90;;;;;;5034276;28;20266;-66
2023/05/31 00:32:00;;;;;;;14.03;10.70;;;12.90;99.90;;;;;;5034701;28;20182;-66
2023/05/31 00:34:25;;;;;;;12.43;10.80;;;12.90;99.90;;;;;;5034263;28;20240;-66
2023/05/31 00:36:51;;;;;;;12.70;10.40;;;12.80;99.90;;;;;;5034925;28;20199;-65
2023/05/31 00:39:17;;;;;;;12.47;10.77;;;12.80;99.90;;;;;;5034095;28;20667;-66
2023/05/31 00:41:42;;;;;;;19.93;11.27;;;12.80;99.90;;;;;;5034948;28;20171;-66
2023/05/31 00:44:08;;;;;;;13.00;10.93;;;12.80;99.90;;;;;;5034401;28;20672;-66
2023/05/31 00:46:36;;;;;;;15.13;11.27;;;12.70;99.90;;;;;;5034623;28;20183;-65
2023/05/31 00:49:02;;;;;;;13.23;11.27;;;12.70;99.90;;;;;;5034470;28;20186;-66
2023/05/31 00:51:31;;;;;;;15.73;11.10;;;12.70;99.90;;;;;;5033884;28;20195;-66
2023/05/31 00:53:58;;;;;;;16.47;12.47;;;12.70;99.90;;;;;;5033625;28;20510;-66
2023/05/31 00:56:24;;;;;;;19.80;12.00;;;12.60;99.90;;;;;;5034271;28;20203;-66
2023/05/31 00:58:52;;;;;;;14.43;12.27;;;12.60;99.90;;;;;;5034499;28;20559;-66
2023/05/31 01:01:19;;;;;;;14.73;11.80;;;12.60;99.90;;;;;;5033624;28;20219;-66
2023/05/31 01:03:46;;;;;;;18.57;12.83;;;12.60;99.90;;;;;;5034329;28;20703;-66
2023/05/31 01:06:11;;;;;;;16.20;11.70;;;12.60;99.90;;;;;;5034208;28;20180;-66
2023/05/31 01:08:38;;;;;;;14.07;10.83;;;12.50;99.90;;;;;;5034208;28;20182;-66
2023/05/31 01:11:17;;;;;;;15.07;11.73;;;12.50;99.90;;;;;;5033423;28;20179;-66
2023/05/31 01:14:09;;;;;;;17.80;11.97;;;12.50;99.90;;;;;;5034187;28;20219;-66
2023/05/31 01:16:45;;;;;;;13.30;11.90;;;12.50;99.90;;;;;;5023614;28;20302;-66
2023/05/31 01:19:18;;;;;;;15.20;11.70;;;12.40;99.90;;;;;;5033495;28;20178;-65
2023/05/31 01:21:51;;;;;;;18.67;12.00;;;12.30;99.90;;;;;;5014115;28;20176;-66
2023/05/31 01:24:34;;;;;;;13.93;11.47;;;12.30;99.90;;;;;;5016574;28;20187;-66
2023/05/31 01:27:01;;;;;;;15.57;12.17;;;12.30;99.90;;;;;;5033785;28;20267;-65
2023/05/31 01:29:30;;;;;;;19.00;12.83;;;12.30;99.90;;;;;;5033211;28;20740;-66
2023/05/31 01:31:59;;;;;;;18.33;12.17;;;12.30;99.90;;;;;;5033596;28;20517;-66
2023/05/31 01:34:25;;;;;;;16.37;12.30;;;12.30;99.90;;;;;;5033343;28;20180;-66
2023/05/31 01:36:50;;;;;;;18.00;12.20;;;12.20;99.90;;;;;;5033361;28;20218;-66
2023/05/31 01:39:17;;;;;;;16.07;11.60;;;12.20;99.90;;;;;;5031430;28;20180;-66
2023/05/31 01:41:45;;;;;;;18.03;12.07;;;12.20;99.90;;;;;;5033321;28;20187;-66
2023/05/31 01:44:15;;;;;;;18.50;12.10;;;12.20;99.90;;;;;;5033317;28;20289;-65
2023/05/31 01:46:42;;;;;;;19.17;12.87;;;12.20;99.90;;;;;;5033387;28;20236;-66
2023/05/31 01:49:09;;;;;;;16.03;11.93;;;12.10;99.90;;;;;;5032975;28;20182;-65
2023/05/31 01:51:37;;;;;;;22.00;13.20;;;12.10;99.90;;;;;;5031725;28;20191;-66
2023/05/31 01:54:03;;;;;;;16.87;11.73;;;12.10;99.90;;;;;;5033263;28;20198;-66
2023/05/31 01:56:31;;;;;;;14.50;11.07;;;12.00;99.90;;;;;;5032864;28;20203;-66
2023/05/31 01:58:58;;;;;;;19.97;11.93;;;12.00;99.90;;;;;;5033172;28;20210;-66
2023/05/31 02:01:24;;;;;;;15.73;11.97;;;12.00;99.90;;;;;;5032437;28;20254;-66
2023/05/31 02:03:53;;;;;;;16.77;12.23;;;12.00;99.90;;;;;;5033257;28;20306;-66
2023/05/31 02:06:19;;;;;;;16.17;11.93;;;12.00;99.90;;;;;;5032641;28;20657;-66
2023/05/31 02:08:44;;;;;;;17.43;11.43;;;12.00;99.90;;;;;;5033172;28;20238;-66
2023/05/31 02:11:10;;;;;;;16.40;12.27;;;12.00;99.90;;;;;;5033124;28;20273;-69
2023/05/31 02:13:36;;;;;;;17.77;11.90;;;12.00;99.90;;;;;;5033828;28;20211;-68
2023/05/31 02:16:05;;;;;;;24.67;12.43;;;12.00;99.90;;;;;;5034285;28;20191;-71
2023/05/31 02:18:32;;;;;;;18.17;12.40;;;12.00;99.90;;;;;;5032673;28;20190;-70
2023/05/31 02:20:58;;;;;;;17.73;12.70;;;11.90;99.90;;;;;;5033754;28;20198;-72
2023/05/31 02:23:24;;;;;;;15.27;11.67;;;11.90;99.90;;;;;;5032654;28;20203;-68
2023/05/31 02:25:50;;;;;;;14.63;11.77;;;11.90;99.90;;;;;;5032326;28;20218;-70
2023/05/31 02:28:16;;;;;;;17.13;12.33;;;11.80;99.90;;;;;;5032659;28;20191;-71
2023/05/31 02:30:56;;;;;;;16.37;12.40;;;11.80;99.90;;;;;;5033543;28;20171;-69
2023/05/31 02:33:22;;;;;;;15.90;12.33;;;11.80;99.90;;;;;;5014376;28;20208;-73
2023/05/31 02:35:48;;;;;;;16.40;13.00;;;11.80;99.90;;;;;;5012644;28;20557;-71
2023/05/31 02:38:14;;;;;;;18.97;11.97;;;11.70;99.90;;;;;;5031512;28;20196;-67
2023/05/31 02:40:39;;;;;;;15.13;12.13;;;11.70;99.90;;;;;;5033004;28;20222;-70
2023/05/31 02:43:05;;;;;;;15.83;13.37;;;11.70;99.90;;;;;;5031214;28;20665;-68
2023/05/31 02:45:31;;;;;;;23.17;13.93;;;11.70;99.90;;;;;;5033070;28;20188;-69
2023/05/31 02:47:56;;;;;;;17.37;13.30;;;11.70;99.90;;;;;;5033400;28;20178;-73
2023/05/31 02:50:22;;;;;;;14.67;12.57;;;11.70;99.90;;;;;;5033090;28;20668;-69
2023/05/31 02:52:47;;;;;;;14.93;12.33;;;11.60;99.90;;;;;;5033318;28;20198;-71
2023/05/31 02:55:13;;;;;;;19.10;13.53;;;11.60;99.90;;;;;;5033438;28;20176;-70
2023/05/31 02:57:38;;;;;;;22.97;13.33;;;11.60;99.90;;;;;;5032860;28;20199;-71
2023/05/31 03:00:11;;;;;;;19.07;12.50;;;11.60;99.90;;;;;;5032866;28;20186;-71
2023/05/31 03:02:37;;;;;;;16.70;13.30;;;11.60;99.90;;;;;;5033216;28;20195;-71
2023/05/31 03:05:04;;;;;;;17.47;12.20;;;11.50;99.90;;;;;;5033361;28;20191;-73
2023/05/31 03:07:30;;;;;;;16.83;12.07;;;11.50;99.90;;;;;;5032551;28;20184;-69
2023/05/31 03:09:56;;;;;;;19.90;13.30;;;11.50;99.90;;;;;;5033025;28;20724;-71
2023/05/31 03:12:21;;;;;;;15.27;13.63;;;11.60;99.90;;;;;;5033022;28;20613;-69
2023/05/31 03:14:47;;;;;;;13.60;12.13;;;11.50;99.90;;;;;;5033388;28;20195;-68
2023/05/31 03:17:12;;;;;;;18.50;14.23;;;11.50;99.90;;;;;;5032458;28;20233;-71
2023/05/31 03:19:38;;;;;;;19.10;13.43;;;11.50;99.90;;;;;;5033067;28;20251;-72
2023/05/31 03:22:04;;;;;;;17.03;12.83;;;11.40;99.90;;;;;;5033312;28;20203;-69
2023/05/31 03:24:30;;;;;;;18.87;12.63;;;11.40;99.90;;;;;;5033141;28;20180;-68
2023/05/31 03:26:55;;;;;;;15.93;12.57;;;11.40;99.90;;;;;;5032931;28;20172;-70
2023/05/31 03:29:21;;;;;;;16.83;12.33;;;11.40;99.90;;;;;;5032454;28;20175;-70
2023/05/31 03:31:47;;;;;;;15.20;11.83;;;11.50;99.90;;;;;;5032914;28;20186;-70
2023/05/31 03:34:12;;;;;;;19.10;13.23;;;11.50;99.90;;;;;;5033066;28;20186;-70
2023/05/31 03:36:38;;;;;;;18.30;12.67;;;11.40;99.90;;;;;;5032303;28;20203;-69
2023/05/31 03:39:04;;;;;;;16.57;12.37;;;11.40;99.90;;;;;;5033397;28;20251;-74
2023/05/31 03:41:30;;;;;;;19.27;13.43;;;11.40;99.90;;;;;;5032604;28;20184;-68
2023/05/31 03:43:55;;;;;;;14.00;12.20;;;11.40;99.90;;;;;;5033175;28;20199;-73
2023/05/31 03:46:21;;;;;;;15.37;12.37;;;11.40;99.90;;;;;;5031996;28;20271;-71
2023/05/31 03:48:46;;;;;;;17.97;12.30;;;11.40;99.90;;;;;;5033099;28;20525;-71
2023/05/31 03:51:12;;;;;;;15.27;12.97;;;11.40;99.90;;;;;;5032998;28;20176;-73
2023/05/31 03:53:38;;;;;;;17.67;12.10;;;11.50;99.90;;;;;;5032587;28;20203;-72
2023/05/31 03:56:04;;;;;;;14.27;11.83;;;11.50;99.90;;;;;;5033238;28;20183;-72
2023/05/31 03:58:30;;;;;;;19.87;12.90;;;11.50;99.90;;;;;;5032174;28;20253;-67
2023/05/31 04:00:56;;;;;;;19.00;13.67;;;11.50;99.90;;;;;;5031110;28;20171;-67
2023/05/31 04:03:22;;;;;;;16.37;12.53;;;11.50;99.90;;;;;;5030847;28;20223;-67
2023/05/31 04:05:47;;;;;;;17.53;12.20;;;11.50;99.90;;;;;;5031415;28;20577;-68
2023/05/31 04:08:13;;;;;;;18.77;12.53;;;11.60;99.90;;;;;;5031237;28;20566;-67
2023/05/31 04:10:38;;;;;;;14.93;12.83;;;11.60;99.90;;;;;;5030708;28;20179;-68
2023/05/31 04:13:04;;;;;;;14.60;12.27;;;11.60;99.90;;;;;;5030986;28;20206;-67
2023/05/31 04:15:30;;;;;;;16.57;11.90;;;11.70;99.90;;;;;;5030772;28;20202;-67
2023/05/31 04:17:55;;;;;;;15.00;12.27;;;11.70;99.90;;;;;;5030922;28;20219;-67
2023/05/31 04:20:21;;;;;;;17.57;12.37;;;11.80;99.90;;;;;;5030514;28;20637;-67
2023/05/31 04:22:47;;;;;;;18.97;12.17;;;11.80;99.90;;;;;;5030892;28;20278;-67
2023/05/31 04:25:12;;;;;;;18.37;12.73;;;11.90;99.90;;;;;;5031000;28;20226;-67
2023/05/31 04:27:40;;;;;;;17.57;12.37;;;11.90;99.90;;;;;;5030783;28;20191;-68
2023/05/31 04:30:06;;;;;;;15.70;11.87;;;11.90;99.90;;;;;;5030861;28;20171;-67
2023/05/31 04:32:34;;;;;;;15.23;11.70;;;12.00;99.90;;;;;;5029222;28;20199;-67
2023/05/31 04:35:04;;;;;;;15.40;12.30;;;12.00;99.90;;;;;;5030870;28;20225;-67
2023/05/31 04:37:30;;;;;;;22.93;12.43;;;12.20;99.90;;;;;;5030349;28;20703;-67
2023/05/31 04:39:56;;;;;;;13.80;12.40;;;12.40;99.90;;;;;;5029357;28;20178;-67
2023/05/31 04:42:24;;;;;;;13.47;10.83;;;12.60;99.90;;;;;;5030557;28;20649;-68
2023/05/31 04:44:51;;;;;;;12.10;10.70;;;12.70;99.90;;;;;;5031073;28;20666;-67
2023/05/31 04:47:18;;;;;;;13.50;11.23;;;12.80;99.90;;;;;;5032002;28;20172;-67
2023/05/31 04:49:45;;;;;;;12.93;11.17;;;13.00;99.90;;;;;;5034310;28;20179;-67
2023/05/31 04:52:12;;;;;;;12.27;11.07;;;13.10;99.90;;;;;;5034155;28;20588;-67
2023/05/31 04:54:38;;;;;;;14.03;11.53;;;13.30;99.90;;;;;;5034616;28;20201;-65
2023/05/31 04:57:04;;;;;;;15.63;10.80;;;13.50;99.90;;;;;;5034124;28;20207;-65
2023/05/31 04:59:30;;;;;;;13.77;10.80;;;13.70;99.90;;;;;;5033832;28;20174;-65
2023/05/31 05:01:55;;;;;;;11.93;10.10;;;14.10;99.90;;;;;;5033965;28;20171;-65
2023/05/31 05:04:21;;;;;;;12.37;10.70;;;14.50;99.90;;;;;;5034118;28;20174;-65
2023/05/31 05:06:47;;;;;;;12.63;10.33;;;14.80;99.90;;;;;;5034008;28;20577;-65
2023/05/31 05:09:13;;;;;;;14.60;11.73;;;15.20;99.90;;;;;;5033681;28;20676;-64
2023/05/31 05:11:39;;;;;;;11.37;9.27;;;15.50;99.90;;;;;;5033991;28;20171;-65
2023/05/31 05:14:05;;;;;;;12.73;11.37;;;15.60;99.90;;;;;;5034016;28;20285;-65
2023/05/31 05:16:30;;;;;;;11.20;9.90;;;15.70;99.90;;;;;;5033780;28;20294;-65
2023/05/31 05:18:56;;;;;;;12.13;9.43;;;15.70;99.90;;;;;;5034081;28;20629;-67
2023/05/31 05:21:21;;;;;;;12.00;10.73;;;15.80;99.90;;;;;;5033176;28;20186;-68
2023/05/31 05:23:47;;;;;;;11.73;10.80;;;16.00;99.90;;;;;;5033295;28;20645;-65
2023/05/31 05:26:13;;;;;;;11.23;9.83;;;16.20;99.90;;;;;;5033714;28;20254;-65
2023/05/31 05:28:38;;;;;;;11.33;10.23;;;16.50;99.90;;;;;;5033844;28;20218;-65
2023/05/31 05:31:04;;;;;;;11.50;10.33;;;16.60;99.90;;;;;;5032858;28;20580;-65
2023/05/31 05:33:30;;;;;;;10.27;9.10;;;16.70;99.90;;;;;;5033391;28;20643;-68
2023/05/31 05:35:56;;;;;;;9.77;8.77;;;16.70;99.90;;;;;;5033453;28;20219;-65
2023/05/31 05:38:21;;;;;;;10.17;8.93;;;16.60;99.90;;;;;;5033148;28;20249;-65
2023/05/31 05:40:47;;;;;;;13.97;10.13;;;16.60;99.90;;;;;;5033037;28;20227;-65
2023/05/31 05:43:13;;;;;;;10.43;8.97;;;16.80;99.90;;;;;;5033135;28;20194;-65
2023/05/31 05:45:39;;;;;;;10.67;9.23;;;16.90;99.90;;;;;;5033466;28;20176;-68
2023/05/31 05:48:04;;;;;;;12.50;9.20;;;17.10;99.90;;;;;;5033586;28;20182;-65
2023/05/31 05:50:30;;;;;;;10.20;9.20;;;17.20;99.90;;;;;;5032805;28;20561;-65
2023/05/31 05:52:56;;;;;;;9.48;8.60;;;17.50;99.90;;;;;;5033305;28;20557;-65
2023/05/31 05:55:21;;;;;;;10.10;9.10;;;17.90;99.90;;;;;;5032789;28;20239;-65
2023/05/31 05:57:47;;;;;;;9.88;8.80;;;18.30;99.90;;;;;;5032739;28;20195;-65
2023/05/31 06:00:15;;;;;;;8.93;7.65;;;18.60;99.90;;;;;;5032613;28;20268;-65
2023/05/31 06:02:40;;;;;;;8.75;7.72;;;18.90;99.90;;;;;;5033164;28;20203;-65
2023/05/31 06:05:07;;;;;;;9.15;8.23;;;19.20;99.90;;;;;;5032945;28;20180;-65
2023/05/31 06:07:33;;;;;;;9.40;7.75;;;19.50;99.90;;;;;;5031004;28;20264;-65
2023/05/31 06:09:59;;;;;;;12.05;7.00;;;19.70;99.90;;;;;;5032423;28;20223;-65
2023/05/31 06:12:25;;;;;;;8.25;7.30;;;19.90;99.90;;;;;;5032642;28;20221;-67
2023/05/31 06:14:51;;;;;;;10.00;7.57;;;20.20;99.90;;;;;;5032497;28;20278;-66
2023/05/31 06:17:16;;;;;;;10.07;7.90;;;20.50;99.90;;;;;;5032496;28;20230;-65
2023/05/31 06:19:42;;;;;;;8.77;7.22;;;20.80;99.90;;;;;;5032291;28;20591;-65
2023/05/31 06:22:07;;;;;;;10.50;7.32;;;21.10;99.90;;;;;;5031376;28;20199;-66
2023/05/31 06:24:33;;;;;;;8.95;6.65;;;21.30;99.90;;;;;;5032157;28;20190;-65
2023/05/31 06:26:58;;;;;;;8.48;6.80;;;21.70;99.90;;;;;;5032498;28;20176;-66
2023/05/31 06:29:25;;;;;;;7.07;6.30;;;22.20;99.90;;;;;;5030937;28;20263;-66
2023/05/31 06:31:51;;;;;;;8.35;6.80;;;22.70;99.90;;;;;;5032359;28;20177;-65
2023/05/31 06:34:16;;;;;;;9.25;6.50;;;23.10;99.90;;;;;;5032336;28;20648;-66
2023/05/31 06:36:42;;;;;;;8.60;6.15;;;23.00;99.90;;;;;;5032408;28;20199;-65
2023/05/31 06:39:08;;;;;;;7.55;6.32;;;23.30;99.90;;;;;;5031836;28;20234;-66
2023/05/31 06:41:34;;;;;;;9.18;6.72;;;23.50;99.90;;;;;;5032016;28;20199;-66
2023/05/31 06:44:01;;;;;;;8.13;6.50;;;23.80;99.90;;;;;;5032028;28;20202;-68
2023/05/31 06:46:28;;;;;;;8.63;6.85;;;24.00;99.90;;;;;;5032172;28;20562;-66
2023/05/31 06:48:54;;;;;;;7.38;6.72;;;24.40;99.90;;;;;;5031508;28;20266;-65
2023/05/31 06:51:22;;;;;;;7.13;6.20;;;24.70;99.90;;;;;;5030472;28;20728;-65
2023/05/31 06:53:48;;;;;;;7.90;6.95;;;24.90;99.90;;;;;;5030589;28;20632;-65
2023/05/31 06:56:14;;;;;;;8.65;7.13;;;24.80;99.90;;;;;;5031434;28;20171;-66
2023/05/31 06:58:41;;;;;;;9.98;6.05;;;24.90;99.90;;;;;;5031975;28;20167;-66
2023/05/31 07:01:06;;;;;;;8.02;5.88;;;25.10;99.90;;;;;;5031446;28;20687;-65
2023/05/31 07:03:32;;;;;;;7.68;6.03;;;25.30;99.90;;;;;;5031714;28;20635;-66
2023/05/31 07:05:58;;;;;;;6.93;5.50;;;25.30;99.90;;;;;;5031617;28;20629;-65
2023/05/31 07:08:23;;;;;;;7.18;6.53;;;25.30;99.90;;;;;;5031764;28;20175;-65
2023/05/31 07:10:49;;;;;;;7.88;6.15;;;25.50;99.90;;;;;;5030888;28;20167;-66
2023/05/31 07:13:15;;;;;;;7.10;6.45;;;25.60;99.90;;;;;;5031965;28;20222;-66
2023/05/31 07:15:40;;;;;;;6.55;5.82;;;25.90;99.90;;;;;;5031207;28;20205;-66
2023/05/31 07:18:06;;;;;;;7.45;6.75;;;26.40;99.90;;;;;;5031534;28;20195;-65
2023/05/31 07:20:31;;;;;;;7.22;5.50;;;26.70;99.90;;;;;;5031204;28;20175;-65
2023/05/31 07:22:57;;;;;;;8.85;6.72;;;26.00;99.90;;;;;;5031474;28;20673;-66
2023/05/31 07:25:24;;;;;;;7.70;7.00;;;26.00;99.90;;;;;;5031039;28;20189;-66
2023/05/31 07:27:50;;;;;;;6.40;5.82;;;26.00;99.90;;;;;;5031575;28;20168;-65
2023/05/31 07:30:15;;;;;;;6.22;5.72;;;26.00;99.90;;;;;;5030721;28;20179;-66
2023/05/31 07:32:41;;;;;;;5.85;5.45;;;26.00;99.90;;;;;;5031104;28;20226;-65
2023/05/31 07:35:07;;;;;;;10.30;6.85;;;26.40;99.90;;;;;;5031478;28;20254;-65
2023/05/31 07:37:32;;;;;;;8.15;5.25;;;26.60;99.90;;;;;;5031176;28;20199;-67
2023/05/31 07:39:58;;;;;;;6.65;5.07;;;26.80;99.90;;;;;;5030729;28;20186;-66
2023/05/31 07:42:24;;;;;;;5.75;4.35;;;26.90;99.90;;;;;;5031049;28;20289;-66
2023/05/31 07:44:50;;;;;;;5.60;5.20;;;27.00;99.90;;;;;;5029419;28;20266;-66
2023/05/31 07:47:16;;;;;;;6.30;4.75;;;27.30;99.90;;;;;;5031018;28;20179;-66
2023/05/31 07:49:42;;;;;;;6.68;6.18;;;27.60;99.90;;;;;;5029261;28;20187;-66
2023/05/31 07:52:08;;;;;;;8.20;7.18;;;27.80;99.90;;;;;;5029879;28;20610;-66
2023/05/31 07:54:34;;;;;;;7.35;6.70;;;28.10;99.90;;;;;;5029685;28;20248;-66
2023/05/31 07:57:00;;;;;;;6.10;5.60;;;28.10;99.90;;;;;;5030368;28;20203;-66
2023/05/31 07:59:26;;;;;;;6.20;4.63;;;28.00;99.90;;;;;;5030640;28;20453;-66
2023/05/31 08:01:51;;;;;;;5.90;5.30;;;28.00;99.90;;;;;;5030667;28;20183;-66
2023/05/31 08:04:17;;;;;;;8.05;5.13;;;28.20;99.90;;;;;;5030840;28;20550;-66
2023/05/31 08:06:43;;;;;;;6.40;5.90;;;28.20;99.90;;;;;;5029126;28;20240;-66
2023/05/31 08:09:09;;;;;;;5.88;4.97;;;28.50;99.90;;;;;;5030817;28;20210;-66
2023/05/31 08:11:36;;;;;;;6.32;5.20;;;28.60;99.90;;;;;;5030290;28;20191;-66
2023/05/31 08:14:03;;;;;;;8.82;5.75;;;28.70;99.90;;;;;;5030864;28;20794;-66
2023/05/31 08:16:29;;;;;;;5.05;4.65;;;29.00;99.90;;;;;;5029251;28;20316;-66
2023/05/31 08:18:55;;;;;;;5.88;4.32;;;29.00;99.90;;;;;;5030725;28;20544;-66
2023/05/31 08:21:21;;;;;;;5.53;4.20;;;29.20;99.90;;;;;;5030698;28;20164;-66
2023/05/31 08:23:46;;;;;;;5.28;4.30;;;29.20;99.90;;;;;;5034508;28;20188;-67
2023/05/31 08:26:12;;;;;;;6.20;4.90;;;29.60;99.90;;;;;;5034654;28;20243;-66
2023/05/31 08:28:37;;;;;;;6.63;4.60;;;30.00;99.90;;;;;;5034509;28;20229;-66
2023/05/31 08:31:03;;;;;;;7.25;4.90;;;30.60;99.90;;;;;;5034361;28;20179;-67
2023/05/31 08:33:31;;;;;;;6.32;4.90;;;31.10;99.90;;;;;;5034538;28;20188;-66
2023/05/31 08:35:59;;;;;;;4.85;4.15;;;31.50;99.90;;;;;;5034066;28;20563;-66
2023/05/31 08:38:29;;;;;;;4.88;4.10;;;31.20;99.90;;;;;;5031322;28;20207;-67
2023/05/31 08:41:00;;;;;;;5.82;4.93;;;30.90;99.90;;;;;;5034588;28;20167;-67
2023/05/31 08:43:26;;;;;;;6.93;5.40;;;30.80;99.90;;;;;;5034452;28;20684;-66
2023/05/31 08:45:52;;;;;;;4.28;3.97;;;31.10;99.90;;;;;;5034478;28;20176;-67
2023/05/31 08:48:47;;;;;;;6.40;4.18;;;31.90;99.90;;;;;;5034334;28;20179;-66
2023/05/31 08:51:14;;;;;;;7.10;4.63;;;32.60;99.90;;;;;;5033974;28;20665;-66
2023/05/31 08:53:41;;;;;;;5.10;4.72;;;32.90;99.20;;;;;;5033695;28;20226;-66
2023/05/31 08:56:08;;;;;;;5.88;5.35;;;32.80;94.60;;;;;;5034146;28;20163;-66
2023/05/31 08:58:35;;;;;;;6.00;4.15;;;32.50;95.80;;;;;;5033958;28;20179;-66
2023/05/31 09:01:02;;;;;;;4.32;3.92;;;32.70;96.20;;;;;;5033389;28;20163;-66
2023/05/31 09:03:28;;;;;;;6.63;3.80;;;33.10;96.70;;;;;;5033608;28;20557;-65
2023/05/31 09:05:56;;;;;;;4.13;3.55;;;33.20;94.60;;;;;;5034024;28;20168;-66
2023/05/31 09:08:22;;;;;;;3.60;2.90;;;32.80;91.40;;;;;;5033952;28;20182;-66
2023/05/31 09:10:49;;;;;;;3.60;3.00;;;33.10;93.70;;;;;;5033665;28;20225;-66
2023/05/31 09:13:15;;;;;;;4.15;3.20;;;33.50;94.10;;;;;;5033333;28;20573;-66
2023/05/31 09:15:43;;;;;;;5.25;3.22;;;33.50;92.40;;;;;;5033735;28;20198;-66
2023/05/31 09:18:16;;;;;;;3.75;3.08;;;33.30;93.10;;;;;;5033786;28;20207;-66
2023/05/31 09:20:43;;;;;;;4.53;2.90;;;33.40;91.30;;;;;;5033658;28;20167;-66
2023/05/31 09:23:09;;;;;;;5.20;3.75;;;33.50;84.60;;;;;;5033610;28;20215;-66
2023/05/31 09:25:44;;;;;;;4.30;3.33;;;33.50;89.70;;;;;;5033403;28;20178;-66
2023/05/31 09:28:11;;;;;;;5.82;3.03;;;33.20;83.20;;;;;;5033445;28;20168;-66
2023/05/31 09:30:37;;;;;;;3.85;3.42;;;33.20;90.40;;;;;;5033384;28;20266;-66
2023/05/31 09:33:03;;;;;;;4.70;3.88;;;33.10;87.40;;;;;;5032960;28;20282;-66
2023/05/31 09:35:29;;;;;;;4.63;3.08;;;32.60;87.40;;;;;;5033337;28;20521;-66
2023/05/31 09:37:56;;;;;;;3.15;2.85;;;32.50;79.00;;;;;;5033211;28;20253;-66
2023/05/31 09:40:24;;;;;;;4.80;3.28;;;32.40;79.40;;;;;;5032880;28;20660;-66
2023/05/31 09:42:52;;;;;;;4.10;3.03;;;32.30;83.30;;;;;;5033450;28;20198;-66
2023/05/31 09:45:19;;;;;;;5.10;3.10;;;31.90;84.10;;;;;;5032789;28;20182;-65
2023/05/31 09:47:45;;;;;;;4.13;3.22;;;31.70;76.20;;;;;;5031978;28;20731;-66
2023/05/31 09:50:15;;;;;;;6.43;3.20;;;31.60;75.00;;;;;;5032786;28;20183;-66
2023/05/31 09:52:56;;;;;;;2.85;2.63;;;31.60;76.30;;;;;;5033157;28;20191;-66
2023/05/31 09:55:22;;;;;;;2.90;2.70;;;31.50;75.90;;;;;;5032862;28;20270;-66
2023/05/31 09:57:52;;;;;;;5.30;4.90;;;31.80;78.70;;;;;;5033313;28;20393;-66
2023/05/31 10:00:18;;;;;;;4.93;4.55;;;32.30;72.40;;;;;;5032239;28;20183;-65
2023/05/31 10:02:47;;;;;;;6.57;4.60;;;32.30;73.00;;;;;;5033047;28;20191;-66
2023/05/31 10:05:15;;;;;;;7.07;4.00;;;32.40;75.30;;;;;;5032837;28;20540;-65
2023/05/31 10:07:47;;;;;;;5.18;3.58;;;32.30;70.60;;;;;;5033060;28;20229;-66
2023/05/31 10:10:13;;;;;;;3.63;3.33;;;32.30;72.80;;;;;;5032656;28;20237;-66
2023/05/31 10:12:54;;;;;;;3.90;3.50;;;32.50;71.20;;;;;;5032553;28;20226;-65
2023/05/31 10:15:25;;;;;;;5.47;3.50;;;32.90;75.70;;;;;;5032682;28;20684;-66
2023/05/31 10:18:17;;;;;;;4.72;3.55;;;32.60;68.70;;;;;;5030240;28;20225;-66
2023/05/31 10:20:52;;;;;;;4.35;3.95;;;32.30;71.90;;;;;;5032592;28;20194;-66
2023/05/31 10:23:24;;;;;;;4.75;4.35;;;32.00;67.80;;;;;;5032164;28;20237;-66
2023/05/31 10:25:56;;;;;;;4.03;3.58;;;31.70;66.20;;;;;;5032573;28;20545;-65
2023/05/31 10:28:27;;;;;;;10.73;4.00;;;31.50;66.50;;;;;;5031968;28;20668;-65
2023/05/31 10:30:54;;;;;;;5.18;3.42;;;31.40;68.60;;;;;;5032501;28;20198;-66
2023/05/31 10:33:20;;;;;;;4.25;3.00;;;31.50;76.10;;;;;;5031882;28;20249;-65
2023/05/31 10:35:46;;;;;;;4.65;4.10;;;31.70;67.40;;;;;;5032455;28;20214;-65
2023/05/31 10:38:13;;;;;;;3.55;3.35;;;31.60;68.40;;;;;;5031806;28;20635;-66
2023/05/31 10:40:49;;;;;;;4.20;2.70;;;31.50;67.80;;;;;;5032069;28;20182;-66
2023/05/31 10:43:41;;;;;;;3.85;2.88;;;31.20;67.70;;;;;;5031910;28;20195;-66
2023/05/31 10:46:10;;;;;;;4.38;2.83;;;31.10;72.60;;;;;;5027471;28;20665;-66
2023/05/31 10:48:57;;;;;;;3.25;3.00;;;31.10;75.00;;;;;;5032391;28;20180;-66
2023/05/31 10:51:45;;;;;;;3.60;3.30;;;31.00;71.20;;;;;;5012306;28;20234;-66
2023/05/31 10:54:27;;;;;;;4.35;2.90;;;30.90;72.30;;;;;;5028969;28;20202;-66
2023/05/31 10:56:58;;;;;;;4.95;3.22;;;31.00;69.10;;;;;;5031770;28;20229;-66
2023/05/31 10:59:27;;;;;;;6.68;4.32;;;31.20;71.90;;;;;;5031612;28;20479;-66
2023/05/31 11:01:53;;;;;;;3.60;3.30;;;31.00;64.00;;;;;;5031593;28;20179;-66
2023/05/31 11:04:24;;;;;;;3.75;3.45;;;31.00;66.40;;;;;;5031810;28;20168;-66
2023/05/31 11:07:16;;;;;;;4.53;3.15;;;31.40;70.60;;;;;;5031838;28;20179;-66
2023/05/31 11:09:58;;;;;;;4.30;3.28;;;31.70;65.90;;;;;;5031318;28;20259;-65
2023/05/31 11:12:35;;;;;;;4.35;3.95;;;31.80;71.50;;;;;;5031365;28;20194;-66
2023/05/31 11:15:03;;;;;;;5.20;4.32;;;31.60;70.30;;;;;;5031763;28;20219;-66
2023/05/31 11:17:29;;;;;;;3.00;2.70;;;31.70;70.30;;;;;;5031095;28;20220;-66
2023/05/31 11:19:55;;;;;;;3.33;3.03;;;31.70;69.40;;;;;;5031455;28;20175;-66
2023/05/31 11:22:26;;;;;;;4.38;3.60;;;31.90;73.90;;;;;;5030078;28;20233;-66
2023/05/31 11:24:57;;;;;;;3.13;2.83;;;32.00;68.70;;;;;;5031322;28;20681;-66
2023/05/31 11:27:48;;;;;;;3.35;3.13;;;31.80;66.50;;;;;;5031408;28;20179;-66
2023/05/31 11:30:14;;;;;;;4.60;3.58;;;31.60;73.30;;;;;;5030826;28;20172;-66
2023/05/31 11:32:40;;;;;;;3.50;3.20;;;31.50;70.10;;;;;;5031181;28;20202;-66
2023/05/31 11:35:08;;;;;;;3.47;3.10;;;31.70;71.40;;;;;;5031215;28;20183;-65
2023/05/31 11:37:36;;;;;;;5.30;3.13;;;31.90;67.60;;;;;;5030810;28;20203;-66
2023/05/31 11:40:12;;;;;;;3.88;3.22;;;32.30;76.10;;;;;;5030922;28;20656;-66
2023/05/31 11:42:40;;;;;;;3.47;3.17;;;32.50;67.50;;;;;;5031181;28;20645;-66
2023/05/31 11:45:20;;;;;;;3.67;3.03;;;32.60;70.10;;;;;;5031295;28;20233;-66
2023/05/31 11:48:06;;;;;;;3.67;3.30;;;32.80;71.60;;;;;;5031017;28;20183;-66
2023/05/31 11:50:32;;;;;;;3.10;2.90;;;33.00;70.20;;;;;;5030869;28;20213;-66
2023/05/31 11:53:02;;;;;;;3.90;3.60;;;33.00;70.90;;;;;;5030113;28;20684;-66
2023/05/31 11:55:37;;;;;;;5.50;3.30;;;32.80;73.50;;;;;;5030951;28;20318;-66
2023/05/31 11:58:06;;;;;;;4.63;3.47;;;32.70;71.60;;;;;;5030419;28;20202;-66
2023/05/31 12:00:32;;;;;;;4.68;3.65;;;32.50;73.90;;;;;;5030639;28;20206;-66
2023/05/31 12:02:59;;;;;;;4.50;3.55;;;32.20;78.10;;;;;;5031347;28;20200;-66
2023/05/31 12:05:26;;;;;;;5.55;3.58;;;32.10;79.70;;;;;;5031453;28;20576;-67
2023/05/31 12:07:55;;;;;;;4.90;4.25;;;32.20;79.80;;;;;;5030798;28;20245;-66
2023/05/31 12:10:24;;;;;;;6.93;3.35;;;32.30;76.20;;;;;;5030892;28;20214;-66
2023/05/31 12:12:50;;;;;;;6.10;3.55;;;32.60;82.10;;;;;;5030781;28;20195;-66
2023/05/31 12:15:17;;;;;;;5.32;3.38;;;32.60;77.00;;;;;;5030724;28;20252;-66
2023/05/31 12:17:42;;;;;;;5.28;3.38;;;32.30;73.80;;;;;;5030480;28;20199;-66
2023/05/31 12:20:09;;;;;;;6.85;3.95;;;32.00;73.90;;;;;;5030650;28;20540;-66
2023/05/31 12:22:35;;;;;;;3.65;3.35;;;31.80;75.90;;;;;;5030800;28;20195;-66
2023/05/31 12:25:01;;;;;;;4.80;3.42;;;31.70;75.20;;;;;;5030880;28;20700;-66
2023/05/31 12:27:28;;;;;;;4.30;3.88;;;31.80;76.20;;;;;;5030900;28;20179;-66
2023/05/31 12:29:57;;;;;;;3.80;3.50;;;32.30;78.80;;;;;;5030395;28;20584;-65
2023/05/31 12:32:27;;;;;;;8.52;3.70;;;32.00;75.50;;;;;;5030768;28;20565;-66
2023/05/31 12:35:03;;;;;;;4.32;3.83;;;31.90;77.70;;;;;;5030907;28;20179;-66
2023/05/31 12:37:37;;;;;;;6.88;3.55;;;31.80;76.50;;;;;;5030814;28;20195;-66
2023/05/31 12:40:10;;;;;;;6.43;3.67;;;32.00;80.10;;;;;;5030594;28;20167;-67